createdAt,value
2018-12-06T00:00:30.351Z,1007.18
2018-12-06T00:01:30.324Z,1007.15
2018-12-06T00:02:30.310Z,1007.17
2018-12-06T00:03:30.280Z,1007.14
2018-12-06T00:04:30.265Z,1007.17
2018-12-06T00:05:30.239Z,1007.14
2018-12-06T00:06:30.218Z,1007.13
2018-12-06T00:07:30.209Z,1007.18
2018-12-06T00:08:30.183Z,1007.15
2018-12-06T00:09:30.160Z,1007.15
2018-12-06T00:10:30.139Z,1007.13
2018-12-06T00:11:30.118Z,1007.15
2018-12-06T00:12:30.098Z,1007.14
2018-12-06T00:13:30.075Z,1007.15
2018-12-06T00:14:30.061Z,1007.14
2018-12-06T00:15:30.042Z,1007.16
2018-12-06T00:16:30.016Z,1007.18
2018-12-06T00:17:30.003Z,1007.21
2018-12-06T00:18:29.980Z,1007.18
2018-12-06T00:19:29.953Z,1007.20
2018-12-06T00:20:29.940Z,1007.23
2018-12-06T00:21:29.916Z,1007.24
2018-12-06T00:22:29.899Z,1007.24
2018-12-06T00:23:29.872Z,1007.21
2018-12-06T00:24:29.859Z,1007.20
2018-12-06T00:25:29.831Z,1007.22
2018-12-06T00:26:29.813Z,1007.21
2018-12-06T00:27:29.789Z,1007.18
2018-12-06T00:28:29.772Z,1007.15
2018-12-06T00:29:29.748Z,1007.13
2018-12-06T00:30:29.731Z,1007.10
2018-12-06T00:31:29.708Z,1007.14
2018-12-06T00:32:29.690Z,1007.13
2018-12-06T00:33:29.666Z,1007.12
2018-12-06T00:34:29.650Z,1007.14
2018-12-06T00:35:29.684Z,1007.11
2018-12-06T00:36:29.617Z,1007.12
2018-12-06T00:37:29.584Z,1007.07
2018-12-06T00:38:29.570Z,1007.09
2018-12-06T00:39:29.543Z,1007.03
2018-12-06T00:40:29.533Z,1007.03
2018-12-06T00:41:29.503Z,1007.03
2018-12-06T00:42:29.482Z,1007.04
2018-12-06T00:43:29.462Z,1007.02
2018-12-06T00:44:29.452Z,1007.05
2018-12-06T00:45:29.421Z,1007.00
2018-12-06T00:46:29.403Z,1007.02
2018-12-06T00:47:29.382Z,1007.04
2018-12-06T00:48:29.369Z,1007.00
2018-12-06T00:49:29.343Z,1007.01
2018-12-06T00:50:29.323Z,1007.02
2018-12-06T00:51:29.300Z,1007.01
2018-12-06T00:52:29.279Z,1006.98
2018-12-06T00:53:29.255Z,1007.02
2018-12-06T00:54:29.238Z,1007.01
2018-12-06T00:55:29.217Z,1007.02
2018-12-06T00:56:29.198Z,1006.98
2018-12-06T00:57:29.174Z,1006.98
2018-12-06T00:58:29.154Z,1006.94
2018-12-06T00:59:29.138Z,1006.97
2018-12-06T01:00:29.113Z,1006.93
2018-12-06T01:01:29.096Z,1006.93
2018-12-06T01:02:29.080Z,1006.91
2018-12-06T01:03:29.069Z,1006.88
2018-12-06T01:04:29.032Z,1006.88
2018-12-06T01:05:29.012Z,1006.87
2018-12-06T01:06:29.014Z,1006.91
2018-12-06T01:07:28.972Z,1006.92
2018-12-06T01:08:28.955Z,1006.92
2018-12-06T01:09:28.932Z,1006.88
2018-12-06T01:10:28.913Z,1006.91
2018-12-06T01:11:28.890Z,1006.88
2018-12-06T01:12:28.874Z,1006.88
2018-12-06T01:13:28.858Z,1006.86
2018-12-06T01:14:28.834Z,1006.90
2018-12-06T01:15:28.811Z,1006.92
2018-12-06T01:16:28.793Z,1006.91
2018-12-06T01:17:28.771Z,1006.91
2018-12-06T01:18:28.751Z,1006.89
2018-12-06T01:19:28.728Z,1006.92
2018-12-06T01:20:28.708Z,1006.91
2018-12-06T01:21:28.690Z,1006.91
2018-12-06T01:22:28.665Z,1006.92
2018-12-06T01:23:28.649Z,1006.93
2018-12-06T01:24:28.628Z,1006.95
2018-12-06T01:25:28.609Z,1006.94
2018-12-06T01:26:28.584Z,1006.94
2018-12-06T01:27:28.571Z,1006.94
2018-12-06T01:28:28.546Z,1006.93
2018-12-06T01:29:28.522Z,1006.92
2018-12-06T01:30:28.508Z,1006.89
2018-12-06T01:31:28.481Z,1006.88
2018-12-06T01:32:28.465Z,1006.85
2018-12-06T01:33:28.439Z,1006.83
2018-12-06T01:34:28.421Z,1006.84
2018-12-06T01:35:28.457Z,1006.85
2018-12-06T01:36:28.377Z,1006.83
2018-12-06T01:37:28.361Z,1006.85
2018-12-06T01:38:28.340Z,1006.82
2018-12-06T01:39:28.316Z,1006.85
2018-12-06T01:40:28.294Z,1006.81
2018-12-06T01:41:28.274Z,1006.83
2018-12-06T01:42:28.254Z,1006.82
2018-12-06T01:43:28.235Z,1006.83
2018-12-06T01:44:28.215Z,1006.78
2018-12-06T01:45:28.193Z,1006.80
2018-12-06T01:46:28.174Z,1006.76
2018-12-06T01:47:28.153Z,1006.73
2018-12-06T01:48:28.134Z,1006.73
2018-12-06T01:49:28.111Z,1006.75
2018-12-06T01:50:28.092Z,1006.72
2018-12-06T01:51:28.070Z,1006.71
2018-12-06T01:52:28.051Z,1006.72
2018-12-06T01:53:28.029Z,1006.72
2018-12-06T01:54:28.012Z,1006.70
2018-12-06T01:55:27.987Z,1006.71
2018-12-06T01:56:27.973Z,1006.69
2018-12-06T01:57:27.950Z,1006.68
2018-12-06T01:58:27.928Z,1006.66
2018-12-06T01:59:27.914Z,1006.64
2018-12-06T02:00:27.886Z,1006.69
2018-12-06T02:01:27.864Z,1006.63
2018-12-06T02:02:27.849Z,1006.66
2018-12-06T02:03:27.830Z,1006.66
2018-12-06T02:04:27.807Z,1006.65
2018-12-06T02:05:27.786Z,1006.67
2018-12-06T02:06:27.766Z,1006.64
2018-12-06T02:07:27.742Z,1006.64
2018-12-06T02:08:27.727Z,1006.60
2018-12-06T02:09:27.702Z,1006.59
2018-12-06T02:10:27.683Z,1006.57
2018-12-06T02:11:27.667Z,1006.58
2018-12-06T02:12:27.644Z,1006.58
2018-12-06T02:13:27.622Z,1006.58
2018-12-06T02:14:27.604Z,1006.54
2018-12-06T02:15:27.585Z,1006.53
2018-12-06T02:16:27.563Z,1006.52
2018-12-06T02:17:27.554Z,1006.54
2018-12-06T02:18:27.523Z,1006.54
2018-12-06T02:19:27.503Z,1006.55
2018-12-06T02:20:27.485Z,1006.52
2018-12-06T02:21:27.471Z,1006.55
2018-12-06T02:22:27.442Z,1006.52
2018-12-06T02:23:27.422Z,1006.57
2018-12-06T02:24:27.406Z,1006.55
2018-12-06T02:25:27.382Z,1006.51
2018-12-06T02:26:27.365Z,1006.52
2018-12-06T02:27:27.342Z,1006.52
2018-12-06T02:28:27.323Z,1006.55
2018-12-06T02:29:27.318Z,1006.54
2018-12-06T02:30:27.284Z,1006.56
2018-12-06T02:31:27.276Z,1006.52
2018-12-06T02:32:27.246Z,1006.48
2018-12-06T02:33:27.232Z,1006.49
2018-12-06T02:35:27.288Z,1006.48
2018-12-06T02:36:27.163Z,1006.45
2018-12-06T02:37:27.143Z,1006.43
2018-12-06T02:38:27.124Z,1006.42
2018-12-06T02:39:27.102Z,1006.42
2018-12-06T02:40:27.084Z,1006.48
2018-12-06T02:41:27.064Z,1006.44
2018-12-06T02:42:27.046Z,1006.40
2018-12-06T02:43:27.024Z,1006.38
2018-12-06T02:44:27.009Z,1006.39
2018-12-06T02:45:26.981Z,1006.39
2018-12-06T02:46:26.961Z,1006.37
2018-12-06T02:47:26.940Z,1006.40
2018-12-06T02:48:26.926Z,1006.38
2018-12-06T02:49:26.903Z,1006.35
2018-12-06T02:50:26.895Z,1006.33
2018-12-06T02:51:26.869Z,1006.35
2018-12-06T02:52:26.849Z,1006.33
2018-12-06T02:53:26.822Z,1006.32
2018-12-06T02:54:26.800Z,1006.30
2018-12-06T02:55:26.783Z,1006.31
2018-12-06T02:56:26.777Z,1006.30
2018-12-06T02:57:26.740Z,1006.31
2018-12-06T02:58:26.722Z,1006.29
2018-12-06T02:59:26.709Z,1006.25
2018-12-06T03:00:26.680Z,1006.27
2018-12-06T03:01:26.670Z,1006.27
2018-12-06T03:02:26.656Z,1006.27
2018-12-06T03:03:26.622Z,1006.26
2018-12-06T03:04:26.602Z,1006.29
2018-12-06T03:05:26.581Z,1006.31
2018-12-06T03:06:26.563Z,1006.34
2018-12-06T03:07:26.542Z,1006.38
2018-12-06T03:08:26.526Z,1006.39
2018-12-06T03:09:26.501Z,1006.43
2018-12-06T03:10:26.480Z,1006.41
2018-12-06T03:11:26.469Z,1006.41
2018-12-06T03:12:26.441Z,1006.44
2018-12-06T03:13:26.420Z,1006.46
2018-12-06T03:14:26.403Z,1006.45
2018-12-06T03:15:26.380Z,1006.47
2018-12-06T03:16:26.361Z,1006.47
2018-12-06T03:17:26.348Z,1006.45
2018-12-06T03:18:26.323Z,1006.45
2018-12-06T03:19:26.304Z,1006.47
2018-12-06T03:20:26.284Z,1006.49
2018-12-06T03:21:26.265Z,1006.48
2018-12-06T03:22:26.245Z,1006.48
2018-12-06T03:23:26.224Z,1006.51
2018-12-06T03:24:26.210Z,1006.51
2018-12-06T03:25:26.185Z,1006.49
2018-12-06T03:26:26.165Z,1006.50
2018-12-06T03:27:26.145Z,1006.57
2018-12-06T03:28:26.145Z,1006.52
2018-12-06T03:29:26.104Z,1006.49
2018-12-06T03:30:26.091Z,1006.47
2018-12-06T03:31:26.212Z,1006.48
2018-12-06T03:32:26.058Z,1006.50
2018-12-06T03:33:26.030Z,1006.50
2018-12-06T03:34:26.009Z,1006.47
2018-12-06T03:35:25.983Z,1006.50
2018-12-06T03:36:25.964Z,1006.49
2018-12-06T03:37:25.949Z,1006.49
2018-12-06T03:38:25.927Z,1006.47
2018-12-06T03:39:25.909Z,1006.50
2018-12-06T03:40:25.886Z,1006.55
2018-12-06T03:41:25.869Z,1006.51
2018-12-06T03:42:25.846Z,1006.54
2018-12-06T03:43:25.826Z,1006.51
2018-12-06T03:44:25.810Z,1006.57
2018-12-06T03:45:25.788Z,1006.56
2018-12-06T03:46:25.770Z,1006.54
2018-12-06T03:47:25.749Z,1006.55
2018-12-06T03:48:25.732Z,1006.58
2018-12-06T03:49:25.709Z,1006.59
2018-12-06T03:50:25.692Z,1006.61
2018-12-06T03:51:25.673Z,1006.55
2018-12-06T03:52:25.651Z,1006.53
2018-12-06T03:53:25.632Z,1006.50
2018-12-06T03:54:25.615Z,1006.46
2018-12-06T03:55:25.592Z,1006.46
2018-12-06T03:56:25.579Z,1006.45
2018-12-06T03:57:25.552Z,1006.36
2018-12-06T03:58:25.533Z,1006.36
2018-12-06T03:59:25.517Z,1006.37
2018-12-06T04:00:25.494Z,1006.34
2018-12-06T04:01:25.473Z,1006.32
2018-12-06T04:02:25.456Z,1006.34
2018-12-06T04:03:25.435Z,1006.33
2018-12-06T04:04:25.422Z,1006.30
2018-12-06T04:05:25.399Z,1006.31
2018-12-06T04:06:25.388Z,1006.28
2018-12-06T04:07:25.359Z,1006.23
2018-12-06T04:08:25.338Z,1006.24
2018-12-06T04:09:25.319Z,1006.24
2018-12-06T04:10:25.309Z,1006.29
2018-12-06T04:11:25.279Z,1006.26
2018-12-06T04:12:25.259Z,1006.32
2018-12-06T04:13:25.240Z,1006.33
2018-12-06T04:14:25.242Z,1006.33
2018-12-06T04:15:25.209Z,1006.31
2018-12-06T04:16:25.182Z,1006.31
2018-12-06T04:17:25.165Z,1006.31
2018-12-06T04:18:25.142Z,1006.33
2018-12-06T04:19:25.215Z,1006.32
2018-12-06T04:20:26.448Z,1006.36
2018-12-06T04:21:25.086Z,1006.39
2018-12-06T04:22:25.068Z,1006.36
2018-12-06T04:23:25.046Z,1006.37
2018-12-06T04:24:25.029Z,1006.37
2018-12-06T04:25:25.084Z,1006.41
2018-12-06T04:26:24.986Z,1006.38
2018-12-06T04:27:24.969Z,1006.37
2018-12-06T04:28:24.948Z,1006.33
2018-12-06T04:29:24.927Z,1006.33
2018-12-06T04:30:24.907Z,1006.29
2018-12-06T04:31:24.886Z,1006.24
2018-12-06T04:32:24.868Z,1006.25
2018-12-06T04:33:24.848Z,1006.21
2018-12-06T04:34:24.832Z,1006.19
2018-12-06T04:35:24.807Z,1006.18
2018-12-06T04:36:24.789Z,1006.21
2018-12-06T04:37:24.772Z,1006.17
2018-12-06T04:38:24.751Z,1006.17
2018-12-06T04:39:24.733Z,1006.16
2018-12-06T04:40:24.711Z,1006.20
2018-12-06T04:41:24.692Z,1006.25
2018-12-06T04:42:24.674Z,1006.30
2018-12-06T04:43:24.657Z,1006.35
2018-12-06T04:44:24.689Z,1006.39
2018-12-06T04:45:24.613Z,1006.38
2018-12-06T04:46:24.592Z,1006.38
2018-12-06T04:47:24.575Z,1006.37
2018-12-06T04:48:24.554Z,1006.36
2018-12-06T04:49:24.535Z,1006.40
2018-12-06T04:50:24.517Z,1006.40
2018-12-06T04:51:24.502Z,1006.41
2018-12-06T04:52:24.476Z,1006.45
2018-12-06T04:53:24.453Z,1006.48
2018-12-06T04:54:24.437Z,1006.51
2018-12-06T04:55:24.415Z,1006.46
2018-12-06T04:56:24.395Z,1006.47
2018-12-06T04:57:24.375Z,1006.49
2018-12-06T04:58:24.358Z,1006.53
2018-12-06T04:59:24.339Z,1006.51
2018-12-06T05:00:24.318Z,1006.53
2018-12-06T05:01:24.301Z,1006.52
2018-12-06T05:02:24.278Z,1006.54
2018-12-06T05:03:24.260Z,1006.51
2018-12-06T05:04:24.239Z,1006.58
2018-12-06T05:05:24.230Z,1006.60
2018-12-06T05:06:24.202Z,1006.60
2018-12-06T05:07:24.181Z,1006.63
2018-12-06T05:08:24.163Z,1006.65
2018-12-06T05:09:24.141Z,1006.64
2018-12-06T05:10:24.124Z,1006.65
2018-12-06T05:11:24.105Z,1006.75
2018-12-06T05:12:24.084Z,1006.68
2018-12-06T05:13:24.065Z,1006.69
2018-12-06T05:14:24.043Z,1006.74
2018-12-06T05:15:24.027Z,1006.67
2018-12-06T05:16:24.008Z,1006.69
2018-12-06T05:17:23.989Z,1006.65
2018-12-06T05:18:23.972Z,1006.62
2018-12-06T05:19:23.957Z,1006.63
2018-12-06T05:20:23.928Z,1006.64
2018-12-06T05:21:23.910Z,1006.68
2018-12-06T05:22:23.888Z,1006.61
2018-12-06T05:23:23.869Z,1006.68
2018-12-06T05:24:23.858Z,1006.68
2018-12-06T05:25:23.837Z,1006.67
2018-12-06T05:26:23.810Z,1006.70
2018-12-06T05:27:23.792Z,1006.69
2018-12-06T05:28:23.773Z,1006.71
2018-12-06T05:29:23.751Z,1006.70
2018-12-06T05:30:23.735Z,1006.75
2018-12-06T05:31:23.715Z,1006.70
2018-12-06T05:32:23.699Z,1006.76
2018-12-06T05:33:23.673Z,1006.76
2018-12-06T05:34:23.657Z,1006.76
2018-12-06T05:35:23.634Z,1006.82
2018-12-06T05:36:23.612Z,1006.82
2018-12-06T05:37:23.594Z,1006.86
2018-12-06T05:38:23.571Z,1006.88
2018-12-06T05:39:23.604Z,1006.92
2018-12-06T05:40:23.534Z,1006.92
2018-12-06T05:41:23.514Z,1006.92
2018-12-06T05:42:23.497Z,1006.93
2018-12-06T05:43:23.475Z,1006.95
2018-12-06T05:44:23.455Z,1006.94
2018-12-06T05:45:23.453Z,1006.97
2018-12-06T05:46:23.420Z,1006.95
2018-12-06T05:47:23.399Z,1007.00
2018-12-06T05:48:23.376Z,1006.99
2018-12-06T05:49:23.356Z,1007.01
2018-12-06T05:50:23.337Z,1007.03
2018-12-06T05:51:23.318Z,1007.04
2018-12-06T05:52:23.303Z,1007.03
2018-12-06T05:53:23.281Z,1007.04
2018-12-06T05:54:23.257Z,1007.02
2018-12-06T05:55:23.241Z,1007.03
2018-12-06T05:56:23.219Z,1007.01
2018-12-06T05:57:23.202Z,1006.99
2018-12-06T05:58:23.179Z,1006.96
2018-12-06T05:59:23.160Z,1006.91
2018-12-06T06:00:23.144Z,1006.87
2018-12-06T06:01:23.120Z,1006.88
2018-12-06T06:02:23.114Z,1006.96
2018-12-06T06:03:23.083Z,1006.95
2018-12-06T06:04:23.066Z,1007.01
2018-12-06T06:05:23.044Z,1007.02
2018-12-06T06:06:23.024Z,1007.04
2018-12-06T06:07:23.002Z,1007.01
2018-12-06T06:08:22.986Z,1006.97
2018-12-06T06:09:22.962Z,1006.89
2018-12-06T06:10:22.949Z,1006.89
2018-12-06T06:11:22.924Z,1006.92
2018-12-06T06:12:22.906Z,1006.87
2018-12-06T06:13:22.883Z,1006.89
2018-12-06T06:14:22.869Z,1006.78
2018-12-06T06:15:22.843Z,1006.77
2018-12-06T06:16:22.825Z,1006.70
2018-12-06T06:17:22.805Z,1006.72
2018-12-06T06:18:22.785Z,1006.67
2018-12-06T06:19:22.765Z,1006.66
2018-12-06T06:20:22.751Z,1006.67
2018-12-06T06:21:22.724Z,1006.64
2018-12-06T06:22:22.706Z,1006.65
2018-12-06T06:23:22.686Z,1006.69
2018-12-06T06:24:22.670Z,1006.71
2018-12-06T06:25:22.647Z,1006.72
2018-12-06T06:26:22.637Z,1006.70
2018-12-06T06:27:22.610Z,1006.75
2018-12-06T06:28:22.586Z,1006.76
2018-12-06T06:29:22.571Z,1006.76
2018-12-06T06:30:22.551Z,1006.79
2018-12-06T06:31:22.528Z,1006.80
2018-12-06T06:32:22.510Z,1006.78
2018-12-06T06:33:22.491Z,1006.80
2018-12-06T06:34:22.469Z,1006.81
2018-12-06T06:35:22.452Z,1006.78
2018-12-06T06:36:22.436Z,1006.84
2018-12-06T06:37:22.407Z,1006.94
2018-12-06T06:38:22.389Z,1006.94
2018-12-06T06:39:22.373Z,1006.94
2018-12-06T06:40:22.355Z,1007.01
2018-12-06T06:41:22.330Z,1007.01
2018-12-06T06:42:22.310Z,1007.02
2018-12-06T06:43:22.292Z,1007.07
2018-12-06T06:44:22.272Z,1007.13
2018-12-06T06:45:22.249Z,1007.18
2018-12-06T06:46:22.370Z,1007.22
2018-12-06T06:47:22.212Z,1007.23
2018-12-06T06:48:22.196Z,1007.25
2018-12-06T06:49:22.171Z,1007.25
2018-12-06T06:50:22.153Z,1007.26
2018-12-06T06:51:22.132Z,1007.26
2018-12-06T06:52:22.112Z,1007.31
2018-12-06T06:53:22.091Z,1007.34
2018-12-06T06:54:22.075Z,1007.31
2018-12-06T06:55:22.055Z,1007.37
2018-12-06T06:56:22.034Z,1007.35
2018-12-06T06:57:22.016Z,1007.32
2018-12-06T06:58:21.996Z,1007.37
2018-12-06T06:59:25.963Z,1007.45
2018-12-06T07:00:21.957Z,1007.41
2018-12-06T07:01:21.938Z,1007.44
2018-12-06T07:02:21.917Z,1007.49
2018-12-06T07:03:21.899Z,1007.46
2018-12-06T07:04:21.879Z,1007.51
2018-12-06T07:05:21.860Z,1007.54
2018-12-06T07:06:21.838Z,1007.59
2018-12-06T07:07:21.819Z,1007.58
2018-12-06T07:08:21.799Z,1007.65
2018-12-06T07:09:21.781Z,1007.66
2018-12-06T07:10:21.761Z,1007.64
2018-12-06T07:11:21.741Z,1007.69
2018-12-06T07:12:21.727Z,1007.74
2018-12-06T07:13:21.703Z,1007.70
2018-12-06T07:14:21.682Z,1007.76
2018-12-06T07:15:21.670Z,1007.75
2018-12-06T07:16:21.645Z,1007.72
2018-12-06T07:17:21.626Z,1007.73
2018-12-06T07:18:21.608Z,1007.75
2018-12-06T07:19:21.588Z,1007.79
2018-12-06T07:20:21.566Z,1007.77
2018-12-06T07:21:21.550Z,1007.75
2018-12-06T07:22:21.530Z,1007.73
2018-12-06T07:23:21.512Z,1007.74
2018-12-06T07:24:21.489Z,1007.75
2018-12-06T07:25:21.476Z,1007.80
2018-12-06T07:26:21.455Z,1007.78
2018-12-06T07:27:21.435Z,1007.77
2018-12-06T07:28:21.413Z,1007.81
2018-12-06T07:29:21.442Z,1007.80
2018-12-06T07:30:21.371Z,1007.81
2018-12-06T07:31:21.357Z,1007.86
2018-12-06T07:32:21.333Z,1007.86
2018-12-06T07:33:21.319Z,1007.90
2018-12-06T07:34:21.295Z,1007.83
2018-12-06T07:35:21.271Z,1007.81
2018-12-06T07:36:21.255Z,1007.83
2018-12-06T07:37:21.233Z,1007.84
2018-12-06T07:38:21.223Z,1007.82
2018-12-06T07:39:21.195Z,1007.83
2018-12-06T07:40:21.172Z,1007.87
2018-12-06T07:41:21.153Z,1007.82
2018-12-06T07:42:21.142Z,1007.87
2018-12-06T07:43:22.935Z,1007.88
2018-12-06T07:44:21.095Z,1007.88
2018-12-06T07:45:21.077Z,1007.93
2018-12-06T07:46:21.056Z,1007.91
2018-12-06T07:47:21.034Z,1007.93
2018-12-06T07:48:21.016Z,1008.01
2018-12-06T07:49:20.998Z,1008.05
2018-12-06T07:50:20.979Z,1008.02
2018-12-06T07:51:20.958Z,1008.07
2018-12-06T07:52:20.940Z,1008.07
2018-12-06T07:53:20.921Z,1008.04
2018-12-06T07:54:20.905Z,1008.08
2018-12-06T07:55:20.881Z,1008.07
2018-12-06T07:56:20.859Z,1008.07
2018-12-06T07:57:20.840Z,1008.11
2018-12-06T07:58:20.820Z,1008.09
2018-12-06T07:59:20.810Z,1008.08
2018-12-06T08:00:20.783Z,1008.08
2018-12-06T08:01:20.763Z,1008.12
2018-12-06T08:02:20.746Z,1008.15
2018-12-06T08:03:20.722Z,1008.09
2018-12-06T08:04:20.705Z,1008.14
2018-12-06T08:05:20.688Z,1008.16
2018-12-06T08:06:20.664Z,1008.09
2018-12-06T08:07:20.645Z,1008.14
2018-12-06T08:08:20.626Z,1008.11
2018-12-06T08:09:20.607Z,1008.09
2018-12-06T08:10:20.587Z,1008.14
2018-12-06T08:11:20.575Z,1008.11
2018-12-06T08:12:20.551Z,1008.11
2018-12-06T08:13:20.533Z,1008.10
2018-12-06T08:14:20.511Z,1008.09
2018-12-06T08:15:20.488Z,1008.05
2018-12-06T08:16:20.476Z,1008.05
2018-12-06T08:17:20.474Z,1008.02
2018-12-06T08:18:20.447Z,1008.07
2018-12-06T08:19:20.467Z,1008.05
2018-12-06T08:20:20.393Z,1008.09
2018-12-06T08:21:20.376Z,1008.09
2018-12-06T08:22:20.363Z,1008.13
2018-12-06T08:23:20.338Z,1008.12
2018-12-06T08:24:20.316Z,1008.11
2018-12-06T08:25:20.293Z,1008.12
2018-12-06T08:26:20.284Z,1008.12
2018-12-06T08:27:20.258Z,1008.16
2018-12-06T08:28:20.236Z,1008.11
2018-12-06T08:29:20.229Z,1008.11
2018-12-06T08:30:20.198Z,1008.11
2018-12-06T08:31:20.178Z,1008.14
2018-12-06T08:32:20.163Z,1008.06
2018-12-06T08:33:20.140Z,1008.06
2018-12-06T08:34:20.125Z,1008.04
2018-12-06T08:35:20.101Z,1008.04
2018-12-06T08:36:20.082Z,1008.00
2018-12-06T08:37:20.064Z,1007.94
2018-12-06T08:38:20.048Z,1007.97
2018-12-06T08:39:20.026Z,1007.97
2018-12-06T08:40:20.009Z,1007.95
2018-12-06T08:41:19.987Z,1007.98
2018-12-06T08:42:19.968Z,1008.01
2018-12-06T08:43:19.948Z,1008.01
2018-12-06T08:44:21.405Z,1008.01
2018-12-06T08:45:19.913Z,1007.97
2018-12-06T08:46:19.890Z,1007.97
2018-12-06T08:47:19.871Z,1007.98
2018-12-06T08:48:19.855Z,1008.00
2018-12-06T08:49:19.832Z,1008.03
2018-12-06T08:50:21.262Z,1008.02
2018-12-06T08:51:19.809Z,1008.04
2018-12-06T08:52:19.781Z,1008.10
2018-12-06T08:53:19.753Z,1008.12
2018-12-06T08:54:19.737Z,1008.15
2018-12-06T08:55:19.716Z,1008.10
2018-12-06T08:56:19.699Z,1008.09
2018-12-06T08:57:19.679Z,1008.11
2018-12-06T08:58:19.662Z,1008.14
2018-12-06T08:59:19.650Z,1008.18
2018-12-06T09:00:19.628Z,1008.21
2018-12-06T09:01:19.607Z,1008.22
2018-12-06T09:02:19.580Z,1008.28
2018-12-06T09:03:19.565Z,1008.27
2018-12-06T09:04:19.547Z,1008.29
2018-12-06T09:05:19.525Z,1008.24
2018-12-06T09:06:19.509Z,1008.21
2018-12-06T09:07:19.486Z,1008.19
2018-12-06T09:08:19.469Z,1008.23
2018-12-06T09:09:19.451Z,1008.19
2018-12-06T09:10:19.430Z,1008.19
2018-12-06T09:11:19.411Z,1008.23
2018-12-06T09:12:19.394Z,1008.31
2018-12-06T09:13:19.379Z,1008.33
2018-12-06T09:14:19.363Z,1008.33
2018-12-06T09:15:19.340Z,1008.30
2018-12-06T09:16:19.322Z,1008.33
2018-12-06T09:17:19.295Z,1008.30
2018-12-06T09:18:19.278Z,1008.30
2018-12-06T09:19:19.258Z,1008.35
2018-12-06T09:20:19.241Z,1008.33
2018-12-06T09:21:19.221Z,1008.36
2018-12-06T09:22:19.211Z,1008.38
2018-12-06T09:23:19.189Z,1008.40
2018-12-06T09:24:19.167Z,1008.43
2018-12-06T09:25:21.236Z,1008.43
2018-12-06T09:26:19.135Z,1008.41
2018-12-06T09:27:19.107Z,1008.44
2018-12-06T09:28:19.091Z,1008.44
2018-12-06T09:29:19.068Z,1008.42
2018-12-06T09:30:19.054Z,1008.40
2018-12-06T09:31:19.031Z,1008.38
2018-12-06T09:32:19.018Z,1008.36
2018-12-06T09:33:18.993Z,1008.33
2018-12-06T09:34:18.976Z,1008.35
2018-12-06T09:35:18.955Z,1008.25
2018-12-06T09:36:18.941Z,1008.33
2018-12-06T09:37:18.918Z,1008.31
2018-12-06T09:38:18.899Z,1008.33
2018-12-06T09:39:18.968Z,1008.30
2018-12-06T09:40:18.870Z,1008.31
2018-12-06T09:41:18.850Z,1008.32
2018-12-06T09:42:18.829Z,1008.28
2018-12-06T09:43:18.802Z,1008.31
2018-12-06T09:44:18.784Z,1008.25
2018-12-06T09:45:18.768Z,1008.28
2018-12-06T09:46:18.748Z,1008.27
2018-12-06T09:47:18.727Z,1008.31
2018-12-06T09:48:18.711Z,1008.35
2018-12-06T09:49:18.690Z,1008.36
2018-12-06T09:50:18.672Z,1008.38
2018-12-06T09:51:18.650Z,1008.40
2018-12-06T09:52:18.634Z,1008.34
2018-12-06T09:53:18.614Z,1008.27
2018-12-06T09:54:18.601Z,1008.26
2018-12-06T09:55:18.584Z,1008.23
2018-12-06T09:56:18.567Z,1008.24
2018-12-06T09:57:18.548Z,1008.23
2018-12-06T09:58:18.520Z,1008.25
2018-12-06T09:59:18.502Z,1008.28
2018-12-06T10:00:18.484Z,1008.26
2018-12-06T10:01:18.464Z,1008.20
2018-12-06T10:02:18.444Z,1008.26
2018-12-06T10:03:18.427Z,1008.27
2018-12-06T10:04:18.408Z,1008.26
2018-12-06T10:05:18.698Z,1008.29
2018-12-06T10:06:18.368Z,1008.31
2018-12-06T10:07:18.349Z,1008.22
2018-12-06T10:08:18.336Z,1008.23
2018-12-06T10:09:18.315Z,1008.23
2018-12-06T10:10:18.293Z,1008.30
2018-12-06T10:11:18.276Z,1008.25
2018-12-06T10:12:18.257Z,1008.23
2018-12-06T10:13:18.244Z,1008.28
2018-12-06T10:14:19.699Z,1008.27
2018-12-06T10:15:18.200Z,1008.31
2018-12-06T10:16:18.185Z,1008.29
2018-12-06T10:17:18.167Z,1008.33
2018-12-06T10:18:18.162Z,1008.37
2018-12-06T10:19:18.146Z,1008.40
2018-12-06T10:20:18.106Z,1008.39
2018-12-06T10:21:18.087Z,1008.43
2018-12-06T10:22:18.070Z,1008.40
2018-12-06T10:23:18.053Z,1008.38
2018-12-06T10:24:18.034Z,1008.36
2018-12-06T10:25:18.010Z,1008.35
2018-12-06T10:26:17.994Z,1008.29
2018-12-06T10:27:17.985Z,1008.26
2018-12-06T10:28:17.955Z,1008.24
2018-12-06T10:29:17.936Z,1008.17
2018-12-06T10:30:17.920Z,1008.26
2018-12-06T10:31:17.904Z,1008.25
2018-12-06T10:32:17.880Z,1008.27
2018-12-06T10:33:17.879Z,1008.26
2018-12-06T10:34:17.845Z,1008.28
2018-12-06T10:35:17.825Z,1008.30
2018-12-06T10:36:17.804Z,1008.29
2018-12-06T10:37:17.787Z,1008.29
2018-12-06T10:38:17.781Z,1008.27
2018-12-06T10:39:17.751Z,1008.28
2018-12-06T10:40:17.733Z,1008.28
2018-12-06T10:41:17.716Z,1008.31
2018-12-06T10:42:17.697Z,1008.25
2018-12-06T10:43:17.683Z,1008.35
2018-12-06T10:44:17.656Z,1008.34
2018-12-06T10:45:17.645Z,1008.34
2018-12-06T10:46:17.619Z,1008.36
2018-12-06T10:47:17.667Z,1008.43
2018-12-06T10:48:17.582Z,1008.40
2018-12-06T10:49:17.559Z,1008.40
2018-12-06T10:50:17.543Z,1008.44
2018-12-06T10:51:17.532Z,1008.44
2018-12-06T10:52:17.509Z,1008.43
2018-12-06T10:53:17.491Z,1008.47
2018-12-06T10:54:17.470Z,1008.50
2018-12-06T10:55:17.532Z,1008.51
2018-12-06T10:56:17.440Z,1008.53
2018-12-06T10:57:17.412Z,1008.52
2018-12-06T10:58:17.395Z,1008.47
2018-12-06T10:59:17.377Z,1008.49
2018-12-06T11:00:17.357Z,1008.48
2018-12-06T11:01:17.338Z,1008.48
2018-12-06T11:02:17.329Z,1008.45
2018-12-06T11:03:17.303Z,1008.46
2018-12-06T11:04:17.291Z,1008.50
2018-12-06T11:05:17.265Z,1008.41
2018-12-06T11:06:17.245Z,1008.44
2018-12-06T11:07:17.229Z,1008.32
2018-12-06T11:08:17.215Z,1008.30
2018-12-06T11:09:17.190Z,1008.30
2018-12-06T11:10:17.174Z,1008.26
2018-12-06T11:11:17.156Z,1008.22
2018-12-06T11:12:17.139Z,1008.24
2018-12-06T11:13:17.113Z,1008.25
2018-12-06T11:14:17.099Z,1008.30
2018-12-06T11:15:17.087Z,1008.33
2018-12-06T11:16:17.065Z,1008.33
2018-12-06T11:17:17.052Z,1008.38
2018-12-06T11:18:17.028Z,1008.36
2018-12-06T11:19:17.009Z,1008.35
2018-12-06T11:20:16.988Z,1008.36
2018-12-06T11:21:16.965Z,1008.38
2018-12-06T11:22:16.946Z,1008.35
2018-12-06T11:23:16.931Z,1008.30
2018-12-06T11:24:16.912Z,1008.33
2018-12-06T11:25:16.901Z,1008.32
2018-12-06T11:26:16.872Z,1008.34
2018-12-06T11:27:16.854Z,1008.33
2018-12-06T11:28:16.844Z,1008.33
2018-12-06T11:29:16.820Z,1008.37
2018-12-06T11:30:16.803Z,1008.32
2018-12-06T11:31:16.785Z,1008.33
2018-12-06T11:32:16.769Z,1008.33
2018-12-06T11:33:16.747Z,1008.33
2018-12-06T11:34:16.731Z,1008.33
2018-12-06T11:35:16.723Z,1008.33
2018-12-06T11:36:16.691Z,1008.38
2018-12-06T11:37:16.678Z,1008.35
2018-12-06T11:38:16.657Z,1008.31
2018-12-06T11:39:16.641Z,1008.37
2018-12-06T11:40:16.673Z,1008.37
2018-12-06T11:41:16.602Z,1008.32
2018-12-06T11:42:16.585Z,1008.36
2018-12-06T11:43:16.561Z,1008.41
2018-12-06T11:44:16.560Z,1008.38
2018-12-06T11:45:16.535Z,1008.40
2018-12-06T11:46:16.510Z,1008.43
2018-12-06T11:47:16.495Z,1008.47
2018-12-06T11:48:16.475Z,1008.48
2018-12-06T11:49:16.455Z,1008.55
2018-12-06T11:50:16.438Z,1008.58
2018-12-06T11:51:16.412Z,1008.60
2018-12-06T11:52:16.396Z,1008.65
2018-12-06T11:53:16.377Z,1008.64
2018-12-06T11:54:16.361Z,1008.68
2018-12-06T11:55:16.391Z,1008.65
2018-12-06T11:56:16.323Z,1008.64
2018-12-06T11:57:16.311Z,1008.67
2018-12-06T11:58:16.290Z,1008.66
2018-12-06T11:59:16.275Z,1008.71
2018-12-06T12:00:16.251Z,1008.73
2018-12-06T12:01:16.234Z,1008.72
2018-12-06T12:02:16.215Z,1008.73
2018-12-06T12:03:16.200Z,1008.72
2018-12-06T12:04:16.249Z,1008.69
2018-12-06T12:05:16.159Z,1008.73
2018-12-06T12:06:16.149Z,1008.69